Hlavní strana
METAR-TAF:

METAR-TAF

Letiště :

Ørsta-Volda, Norsko

zeměpisná šířka: 62-11N, zeměpisná délka: 006-04E, výška: 7 m

Aktuální stav počasí

Zpráva byla vytvořena před 22 minutami, v 04:50 UTC
vítr z různých směrů 4 kt s nárazy do 14 kt
Teplota 14°C
Vlhkost vzduchu 77%
Tlak 1002 hPa
Viditelnost 10 km a více
Skoro jasno ve výšce 3000 ft
Oblačno až skoro zataženo ve výšce 5100 ft
slabý déšť

METAR: ENOV 220450Z VRB04G14KT 9999 -RA FEW030 BKN051 14/10 Q1002 RMK WIND 2175FT 14028KT

Čas: 07:12 (05:12 UTC)


TAF: chybějící

Stav a předpovědi počasí z více než 4 000 letišť (zprávy METAR a TAF).

Červené a žluté tečky na mapě představují dostupné meteorologické stanice.

Když kurzor umístíte na tečku, zobrazí se název stanice.

Pak kliknutím zobrazíte stav a předpověď počasí.

Chcete-li změnit mapu, kliknutím na zelené tlačítko se znaménkem +mapu přiblížíte, kliknutím na zelené tlačítko se znaménkem – mapu oddálíte a kliknutím na zelené šipky přejdete na sousední mapy.


METAR-TAF: